Time;durP1;ratioP1;P1;durP2;ratioP2;P2;SDS_P1;SDS_P2;PMS_P1;PMS_P2;Temp;Humidity;BMP_temperature;BMP_pressure;BME280_temperature;BME280_humidity;BME280_pressure;Samples;Min_cycle;Max_cycle;Signal;HPM_P1;HPM_P2
2021/10/17 00:02:55;;;;;;;4.78;2.78;;;;;;;11.61;100.00;99834.00;5091021;28;20424;-59
2021/10/17 00:05:57;;;;;;;14.68;3.58;;;;;;;11.60;100.00;99835.25;5090743;28;20044;-59
2021/10/17 00:09:01;;;;;;;13.85;3.47;;;;;;;11.69;100.00;99840.00;5091330;28;20132;-59
2021/10/17 00:12:09;;;;;;;5.22;2.50;;;;;;;11.74;100.00;99830.94;5090902;28;20108;-57
2021/10/17 00:15:16;;;;;;;5.95;2.85;;;;;;;11.75;100.00;99826.91;5090935;28;20125;-57
2021/10/17 00:18:20;;;;;;;12.73;2.50;;;;;;;11.81;100.00;99820.16;5091176;28;20046;-59
2021/10/17 00:21:23;;;;;;;8.05;2.33;;;;;;;11.85;100.00;99819.94;5090475;28;20147;-60
2021/10/17 00:24:26;;;;;;;6.40;2.33;;;;;;;11.88;100.00;99814.16;5090256;28;20047;-59
2021/10/17 00:27:28;;;;;;;3.78;1.85;;;;;;;11.86;100.00;99813.88;5090288;28;20039;-59
2021/10/17 00:30:31;;;;;;;7.30;2.15;;;;;;;11.83;100.00;99812.06;5090498;28;20558;-59
2021/10/17 00:33:34;;;;;;;3.58;2.20;;;;;;;11.81;100.00;99814.56;5090480;28;20043;-60
2021/10/17 00:36:37;;;;;;;7.78;2.65;;;;;;;11.89;100.00;99814.94;5091141;28;20039;-59
2021/10/17 00:39:41;;;;;;;3.85;2.00;;;;;;;11.95;100.00;99816.53;5094672;28;20438;-59
2021/10/17 00:42:45;;;;;;;8.57;3.47;;;;;;;12.04;100.00;99816.41;5094458;28;20455;-59
2021/10/17 00:45:48;;;;;;;9.05;3.60;;;;;;;12.12;100.00;99811.97;5094330;28;20051;-59
2021/10/17 00:48:51;;;;;;;12.45;2.83;;;;;;;12.29;100.00;99812.19;5094517;28;20438;-60
2021/10/17 00:51:54;;;;;;;6.43;1.77;;;;;;;12.40;100.00;99814.34;5094381;28;20094;-59
2021/10/17 00:54:57;;;;;;;8.57;2.65;;;;;;;12.42;100.00;99811.84;5094340;28;20443;-59
2021/10/17 00:58:01;;;;;;;8.25;2.70;;;;;;;12.52;100.00;99802.03;5094558;28;20093;-59
2021/10/17 01:01:04;;;;;;;15.10;3.80;;;;;;;12.59;100.00;99798.84;5094418;28;20105;-59
2021/10/17 01:04:08;;;;;;;10.00;2.95;;;;;;;12.62;100.00;99807.00;5094322;28;20506;-59
2021/10/17 01:07:11;;;;;;;8.15;3.13;;;;;;;12.69;100.00;99803.03;5093679;28;20479;-57
2021/10/17 01:10:15;;;;;;;5.03;1.70;;;;;;;12.67;100.00;99803.50;5094286;28;20047;-57
2021/10/17 01:13:20;;;;;;;10.20;2.92;;;;;;;12.73;100.00;99806.38;5093941;28;20074;-59
2021/10/17 01:16:23;;;;;;;12.68;3.83;;;;;;;12.79;100.00;99805.19;5094064;28;20035;-59
2021/10/17 01:19:27;;;;;;;7.18;2.90;;;;;;;12.86;100.00;99809.56;5094172;28;20047;-59
2021/10/17 01:22:30;;;;;;;5.40;2.03;;;;;;;12.88;100.00;99804.25;5093852;28;20055;-57
2021/10/17 01:25:33;;;;;;;8.60;2.38;;;;;;;12.88;100.00;99804.25;5093806;28;20097;-59
2021/10/17 01:28:36;;;;;;;6.13;2.75;;;;;;;12.90;100.00;99802.50;5093793;28;20051;-59
2021/10/17 01:31:39;;;;;;;14.88;3.05;;;;;;;12.95;100.00;99798.97;5093941;28;20090;-59
2021/10/17 01:34:42;;;;;;;4.78;2.28;;;;;;;12.96;100.00;99796.94;5093355;28;20085;-58
2021/10/17 01:37:46;;;;;;;5.35;3.03;;;;;;;12.93;100.00;99789.53;5093509;28;20046;-58
2021/10/17 01:40:48;;;;;;;14.00;4.05;;;;;;;12.90;100.00;99796.13;5093513;28;20074;-59
2021/10/17 01:43:51;;;;;;;10.00;3.22;;;;;;;12.82;100.00;99784.59;5093502;28;20106;-59
2021/10/17 01:46:55;;;;;;;7.38;2.13;;;;;;;12.89;100.00;99789.00;5093528;28;20055;-59
2021/10/17 01:49:59;;;;;;;6.00;1.52;;;;;;;12.93;100.00;99779.13;5092569;28;20051;-59
2021/10/17 01:53:02;;;;;;;6.88;1.90;;;;;;;12.92;100.00;99772.03;5093176;28;20051;-60
2021/10/17 01:56:05;;;;;;;5.95;1.58;;;;;;;12.96;100.00;99774.59;5094003;28;20123;-60
2021/10/17 01:59:08;;;;;;;11.60;2.15;;;;;;;13.02;100.00;99778.19;5094905;28;20463;-59
2021/10/17 02:02:11;;;;;;;3.55;2.00;;;;;;;12.97;100.00;99770.53;5094905;28;20124;-59
2021/10/17 02:05:14;;;;;;;4.72;2.38;;;;;;;13.04;100.00;99770.06;5093886;28;20097;-59
2021/10/17 02:08:16;;;;;;;9.45;2.15;;;;;;;13.00;100.00;99765.97;5093385;28;20062;-59
2021/10/17 02:11:19;;;;;;;6.60;2.13;;;;;;;12.95;100.00;99756.28;5094887;28;20035;-59
2021/10/17 02:14:22;;;;;;;6.88;1.77;;;;;;;12.88;100.00;99756.72;5094478;28;20455;-59
2021/10/17 02:17:25;;;;;;;8.95;2.78;;;;;;;12.81;100.00;99759.97;5094664;28;20042;-59
2021/10/17 02:20:32;;;;;;;5.45;2.03;;;;;;;12.80;100.00;99761.97;5094807;28;20051;-59
2021/10/17 02:23:35;;;;;;;5.05;1.75;;;;;;;12.82;100.00;99750.31;5094401;28;20109;-59
2021/10/17 02:26:38;;;;;;;4.28;1.88;;;;;;;12.84;100.00;99754.13;5094609;28;20039;-59
2021/10/17 02:29:41;;;;;;;5.63;2.30;;;;;;;12.85;100.00;99743.72;5094527;28;20051;-59
2021/10/17 02:32:44;;;;;;;9.05;2.20;;;;;;;12.85;100.00;99743.72;5094298;28;20063;-59
2021/10/17 02:35:48;;;;;;;7.13;2.15;;;;;;;12.88;100.00;99739.97;5094345;28;20058;-59
2021/10/17 02:38:51;;;;;;;13.13;1.65;;;;;;;12.91;100.00;99744.53;5094576;28;20131;-59
2021/10/17 02:41:54;;;;;;;5.30;2.50;;;;;;;12.93;100.00;99733.63;5094273;28;20055;-58
2021/10/17 02:44:57;;;;;;;6.55;3.40;;;;;;;12.94;100.00;99746.38;5094029;28;20067;-59
2021/10/17 02:47:59;;;;;;;3.70;1.73;;;;;;;13.02;100.00;99736.25;5094245;28;20043;-58
2021/10/17 02:51:02;;;;;;;7.22;2.30;;;;;;;13.07;100.00;99738.38;5094072;28;20043;-59
2021/10/17 02:54:05;;;;;;;6.38;1.45;;;;;;;13.08;100.00;99722.38;5093924;28;20047;-59
2021/10/17 02:57:08;;;;;;;9.35;2.55;;;;;;;13.06;100.00;99730.50;5094196;28;20159;-59
2021/10/17 03:00:11;;;;;;;8.40;2.42;;;;;;;13.04;100.00;99725.34;5093987;28;20047;-59
2021/10/17 03:03:14;;;;;;;4.53;1.70;;;;;;;13.11;100.00;99722.13;5093863;28;20081;-60
2021/10/17 03:06:17;;;;;;;6.05;1.98;;;;;;;13.17;100.00;99708.97;5093549;28;20125;-60
2021/10/17 03:09:19;;;;;;;3.08;1.15;;;;;;;13.21;100.00;99720.69;5093556;28;20071;-60
2021/10/17 03:12:22;;;;;;;9.88;1.67;;;;;;;13.20;100.00;99710.78;5093515;28;20458;-61
2021/10/17 03:15:25;;;;;;;3.75;1.63;;;;;;;13.23;100.00;99712.56;5093490;28;20047;-61
2021/10/17 03:18:28;;;;;;;5.10;1.52;;;;;;;13.18;100.00;99704.16;5093475;28;20054;-62
2021/10/17 03:21:31;;;;;;;5.68;1.50;;;;;;;13.20;100.00;99707.22;5093334;28;20395;-61
2021/10/17 03:24:33;;;;;;;5.25;1.80;;;;;;;13.19;100.00;99703.63;5093076;28;20050;-61
2021/10/17 03:27:36;;;;;;;1.33;1.20;;;;;;;13.21;100.00;99697.56;5093477;28;20132;-61
2021/10/17 03:30:40;;;;;;;6.97;1.75;;;;;;;13.25;100.00;99693.28;5093465;28;20102;-62
2021/10/17 03:33:42;;;;;;;3.72;2.15;;;;;;;13.25;100.00;99689.72;5093057;28;20080;-63
2021/10/17 03:36:45;;;;;;;4.18;2.45;;;;;;;13.26;100.00;99692.00;5093067;28;20043;-63
2021/10/17 03:39:48;;;;;;;3.05;1.25;;;;;;;13.26;100.00;99688.44;5092954;28;20042;-64
2021/10/17 03:42:51;;;;;;;4.45;1.75;;;;;;;13.26;100.00;99680.81;5093269;28;20121;-63
2021/10/17 03:45:54;;;;;;;5.35;1.80;;;;;;;13.29;100.00;99682.63;5093011;28;20101;-62
2021/10/17 03:48:57;;;;;;;7.80;1.92;;;;;;;13.32;100.00;99683.66;5093069;28;20089;-63
2021/10/17 03:51:59;;;;;;;2.83;1.38;;;;;;;13.35;100.00;99674.25;5092965;28;20042;-63
2021/10/17 03:55:06;;;;;;;5.57;1.73;;;;;;;13.32;100.00;99669.69;5092839;28;20093;-63
2021/10/17 03:58:08;;;;;;;6.00;1.75;;;;;;;13.30;100.00;99670.16;5093139;28;20039;-63
2021/10/17 04:01:11;;;;;;;2.70;1.35;;;;;;;13.45;100.00;99673.56;5093335;28;20418;-63
2021/10/17 04:04:14;;;;;;;2.63;1.38;;;;;;;13.46;100.00;99677.91;5092782;28;20044;-63
2021/10/17 04:07:17;;;;;;;4.25;1.83;;;;;;;13.50;100.00;99670.03;5092819;28;20090;-63
2021/10/17 04:10:20;;;;;;;5.15;1.20;;;;;;;13.37;100.00;99664.13;5092918;28;20043;-63
2021/10/17 04:13:23;;;;;;;5.65;1.73;;;;;;;13.41;100.00;99677.84;5092093;28;20046;-63
2021/10/17 04:16:26;;;;;;;6.50;1.98;;;;;;;13.37;100.00;99672.50;5092479;28;20039;-64
2021/10/17 04:19:29;;;;;;;8.57;2.55;;;;;;;13.37;100.00;99678.09;5092638;28;20177;-64
2021/10/17 04:22:31;;;;;;;11.05;2.50;;;;;;;13.40;100.00;99674.31;5092615;28;20138;-64
2021/10/17 04:25:34;;;;;;;2.67;1.30;;;;;;;13.44;100.00;99672.03;5092392;28;20507;-63
2021/10/17 04:28:37;;;;;;;9.02;2.88;;;;;;;13.55;100.00;99672.13;5092394;28;20043;-64
2021/10/17 04:31:40;;;;;;;5.40;2.03;;;;;;;13.57;100.00;99669.59;5092611;28;20388;-64
2021/10/17 04:34:43;;;;;;;4.07;1.92;;;;;;;13.59;100.00;99677.47;5092323;28;20058;-64
2021/10/17 04:37:46;;;;;;;6.63;1.38;;;;;;;13.70;100.00;99677.53;5092274;28;20063;-63
2021/10/17 04:40:48;;;;;;;7.05;2.35;;;;;;;13.74;100.00;99677.28;5092490;28;20051;-60
2021/10/17 04:43:51;;;;;;;3.33;1.48;;;;;;;13.77;100.00;99676.28;5092395;28;20102;-59
2021/10/17 04:46:54;;;;;;;6.60;2.08;;;;;;;13.75;100.00;99681.63;5092577;28;20451;-58
2021/10/17 04:49:57;;;;;;;4.20;1.35;;;;;;;13.71;100.00;99672.69;5092300;28;20411;-59
2021/10/17 04:53:00;;;;;;;13.02;2.38;;;;;;;13.77;100.00;99676.28;5092429;28;20047;-59
2021/10/17 04:56:02;;;;;;;2.00;1.13;;;;;;;13.73;100.00;99676.50;5092337;28;20098;-60
2021/10/17 04:59:06;;;;;;;5.45;1.65;;;;;;;13.75;100.00;99676.03;5092313;28;20070;-61
2021/10/17 05:02:09;;;;;;;5.18;1.33;;;;;;;13.81;100.00;99676.81;5092183;28;20063;-60
2021/10/17 05:05:12;;;;;;;19.67;2.10;;;;;;;13.77;100.00;99676.28;5092321;28;20499;-61
2021/10/17 05:08:15;;;;;;;3.28;2.17;;;;;;;13.76;100.00;99680.34;5092194;28;20549;-61
2021/10/17 05:11:20;;;;;;;1.75;0.98;;;;;;;13.76;100.00;99681.13;5092233;28;20448;-61
2021/10/17 05:14:23;;;;;;;2.65;1.65;;;;;;;13.71;100.00;99678.31;5091887;28;20105;-60
2021/10/17 05:17:26;;;;;;;7.32;3.00;;;;;;;13.73;100.00;99678.56;5092004;28;20396;-61
2021/10/17 05:20:29;;;;;;;13.85;2.58;;;;;;;13.79;100.00;99668.94;5092190;28;20043;-61
2021/10/17 05:23:31;;;;;;;5.10;1.83;;;;;;;13.76;100.00;99669.16;5092195;28;20058;-61
2021/10/17 05:26:34;;;;;;;5.53;2.00;;;;;;;13.73;100.00;99676.50;5095495;28;20558;-61
2021/10/17 05:29:37;;;;;;;2.92;1.95;;;;;;;13.68;100.00;99666.84;5095471;28;20158;-61
2021/10/17 05:32:40;;;;;;;2.92;1.38;;;;;;;13.68;100.00;99672.44;5095362;28;20393;-61
2021/10/17 05:35:43;;;;;;;4.28;1.52;;;;;;;13.74;100.00;99674.47;5095233;28;20089;-61
2021/10/17 05:38:46;;;;;;;2.58;1.10;;;;;;;13.75;100.00;99667.63;5095397;28;20082;-61
2021/10/17 05:41:48;;;;;;;1.90;1.27;;;;;;;13.75;100.00;99668.41;5095480;28;20507;-61
2021/10/17 05:44:51;;;;;;;2.92;1.00;;;;;;;13.77;100.00;99667.88;5095301;28;20504;-61
2021/10/17 05:47:54;;;;;;;12.25;2.25;;;;;;;13.75;100.00;99667.63;5095535;28;20115;-61
2021/10/17 05:50:57;;;;;;;6.97;1.60;;;;;;;13.79;100.00;99668.16;5095527;28;20047;-60
2021/10/17 05:54:00;;;;;;;6.82;1.77;;;;;;;13.73;100.00;99672.97;5095171;28;20093;-60
2021/10/17 05:57:03;;;;;;;3.00;1.25;;;;;;;13.74;100.00;99664.06;5095232;28;20076;-60
2021/10/17 06:00:07;;;;;;;3.22;1.23;;;;;;;13.73;100.00;99664.56;5094992;28;20043;-59
2021/10/17 06:03:10;;;;;;;2.97;0.80;;;;;;;13.71;100.00;99667.84;5095149;28;20042;-59
2021/10/17 06:06:13;;;;;;;2.78;1.33;;;;;;;13.69;100.00;99659.19;5094665;28;20112;-59
2021/10/17 06:09:16;;;;;;;8.88;0.75;;;;;;;13.69;100.00;99662.00;5094793;28;20063;-59
2021/10/17 06:12:18;;;;;;;4.28;1.38;;;;;;;13.66;100.00;99657.41;5094767;28;20542;-59
2021/10/17 06:15:21;;;;;;;0.85;0.65;;;;;;;13.71;100.00;99655.91;5094700;28;20139;-59
2021/10/17 06:18:24;;;;;;;4.70;1.55;;;;;;;13.72;100.00;99668.63;5094632;28;20046;-58
2021/10/17 06:21:27;;;;;;;3.30;0.82;;;;;;;13.70;100.00;99666.34;5094493;28;20042;-59
2021/10/17 06:24:31;;;;;;;2.42;1.02;;;;;;;13.70;100.00;99669.13;5094491;28;20043;-59
2021/10/17 06:27:34;;;;;;;2.58;1.02;;;;;;;13.72;100.00;99665.81;5094368;28;20075;-58
2021/10/17 06:30:37;;;;;;;3.00;1.15;;;;;;;13.72;100.00;99663.03;5094252;28;20070;-59
2021/10/17 06:33:39;;;;;;;3.13;0.85;;;;;;;13.73;100.00;99659.72;5094256;28;20127;-61
2021/10/17 06:36:42;;;;;;;0.80;0.75;;;;;;;13.72;100.00;99665.81;5094215;28;20424;-60
2021/10/17 06:39:45;;;;;;;2.00;0.98;;;;;;;13.76;100.00;99669.16;5094343;28;20084;-60
2021/10/17 06:42:48;;;;;;;5.60;1.77;;;;;;;13.76;100.00;99663.53;5094250;28;20410;-60
2021/10/17 06:45:51;;;;;;;1.92;0.70;;;;;;;13.77;100.00;99665.09;5094136;28;20047;-60
2021/10/17 06:48:54;;;;;;;10.15;1.40;;;;;;;13.76;100.00;99674.75;5094432;28;20113;-60
2021/10/17 06:51:56;;;;;;;2.47;1.08;;;;;;;13.75;100.00;99673.22;5094003;28;20127;-60
2021/10/17 06:54:59;;;;;;;3.30;1.65;;;;;;;13.77;100.00;99679.09;5094140;28;20062;-60
2021/10/17 06:58:02;;;;;;;3.03;0.82;;;;;;;13.81;100.00;99674.78;5094150;28;20051;-59
2021/10/17 07:01:05;;;;;;;2.15;0.70;;;;;;;13.73;100.00;99678.56;5093668;28;20115;-58
2021/10/17 07:04:07;;;;;;;6.18;1.67;;;;;;;13.79;100.00;99680.13;5093611;28;20050;-58
2021/10/17 07:07:10;;;;;;;2.58;1.15;;;;;;;13.79;100.00;99682.16;5093335;28;20535;-59
2021/10/17 07:10:13;;;;;;;1.88;1.02;;;;;;;13.80;100.00;99675.25;5093396;28;20074;-60
2021/10/17 07:13:16;;;;;;;3.88;1.00;;;;;;;13.83;100.00;99685.47;5093127;28;20120;-59
2021/10/17 07:16:18;;;;;;;2.75;1.88;;;;;;;13.83;100.00;99685.47;5093350;28;20101;-60
2021/10/17 07:19:21;;;;;;;3.65;1.42;;;;;;;13.88;100.00;99687.53;5093143;28;20088;-60
2021/10/17 07:22:24;;;;;;;4.07;1.77;;;;;;;13.88;100.00;99688.28;5093194;28;20046;-59
2021/10/17 07:25:27;;;;;;;0.85;0.50;;;;;;;13.87;100.00;99688.78;5092881;28;20093;-60
2021/10/17 07:28:30;;;;;;;5.28;1.63;;;;;;;13.91;100.00;99689.31;5092737;28;20118;-60
2021/10/17 07:31:33;;;;;;;10.90;1.55;;;;;;;13.92;100.00;99699.25;5092918;28;20611;-60
2021/10/17 07:34:36;;;;;;;3.10;0.80;;;;;;;13.93;100.00;99707.16;5092862;28;20035;-59
2021/10/17 07:37:38;;;;;;;8.27;1.48;;;;;;;13.93;100.00;99700.78;5092637;28;20622;-58
2021/10/17 07:40:41;;;;;;;4.25;1.63;;;;;;;13.95;100.00;99699.00;5092814;28;20039;-60
2021/10/17 07:43:44;;;;;;;10.07;1.83;;;;;;;13.96;100.00;99697.75;5091873;28;20043;-60
2021/10/17 07:46:47;;;;;;;1.90;0.93;;;;;;;13.94;100.00;99691.13;5091969;28;20160;-59
2021/10/17 08:02:04;;;;;;;1.63;1.50;;;;;;;13.99;100.00;99704.38;5110268;27;20475;-62
2021/10/17 08:05:08;;;;;;;5.82;2.78;;;;;;;13.96;100.00;99705.38;5110211;28;20089;-62
2021/10/17 08:08:11;;;;;;;2.67;1.92;;;;;;;13.97;100.00;99712.53;5110494;28;20494;-63
2021/10/17 08:11:16;;;;;;;6.25;2.15;;;;;;;14.00;100.00;99711.50;5109589;28;20043;-62
2021/10/17 08:14:19;;;;;;;7.20;2.17;;;;;;;13.97;100.00;99712.53;5109348;28;20051;-62
2021/10/17 08:17:24;;;;;;;4.35;1.63;;;;;;;13.97;100.00;99718.88;5109245;28;20388;-63
2021/10/17 08:20:27;;;;;;;4.00;1.08;;;;;;;13.98;100.00;99703.63;5110103;28;20062;-63
2021/10/17 08:23:31;;;;;;;6.25;1.63;;;;;;;14.07;100.00;99711.81;5108944;28;20058;-62
2021/10/17 08:26:34;;;;;;;1.45;0.77;;;;;;;14.07;100.00;99705.44;5109263;28;20100;-63
2021/10/17 08:29:36;;;;;;;5.47;2.08;;;;;;;14.07;100.00;99708.22;5109729;28;20395;-63
2021/10/17 08:32:39;;;;;;;3.10;1.20;;;;;;;14.09;100.00;99708.50;5109732;28;20046;-64
2021/10/17 08:35:43;;;;;;;3.63;1.58;;;;;;;14.10;100.00;99715.59;5107824;28;20055;-63
2021/10/17 08:38:46;;;;;;;1.98;1.30;;;;;;;14.13;100.00;99720.22;5109710;28;20079;-63
2021/10/17 08:41:49;;;;;;;2.65;1.38;;;;;;;14.17;100.00;99715.13;5109642;28;20066;-63
2021/10/17 08:44:55;;;;;;;8.25;2.25;;;;;;;14.16;100.00;99719.97;5109787;28;20097;-62
2021/10/17 08:48:01;;;;;;;4.38;1.58;;;;;;;14.18;100.00;99716.69;5109731;28;20552;-62
2021/10/17 08:51:06;;;;;;;4.90;2.30;;;;;;;14.19;100.00;99712.59;5108820;28;20070;-62
2021/10/17 08:54:09;;;;;;;2.85;0.98;;;;;;;14.17;100.00;99713.09;5109426;28;20082;-62
2021/10/17 08:57:12;;;;;;;3.17;0.77;;;;;;;14.20;100.00;99714.91;5109802;28;20046;-63
2021/10/17 09:00:34;;;;;;;3.20;1.42;;;;;;;14.21;100.00;99721.25;5108775;28;20047;-63
2021/10/17 09:03:37;;;;;;;3.50;1.42;;;;;;;14.22;100.00;99717.19;5095450;28;20120;-63
2021/10/17 09:06:39;;;;;;;3.10;1.45;;;;;;;14.21;100.00;99715.66;5095499;28;20047;-64
2021/10/17 09:09:42;;;;;;;4.75;2.03;;;;;;;14.20;100.00;99723.31;5094735;28;20035;-62
2021/10/17 09:12:47;;;;;;;3.03;1.20;;;;;;;14.22;100.00;99734.78;5094663;28;20078;-64
2021/10/17 09:15:55;;;;;;;5.78;1.15;;;;;;;14.22;100.00;99731.97;5094704;28;20165;-63
2021/10/17 09:19:09;;;;;;;3.63;1.50;;;;;;;14.18;100.00;99727.88;5094711;28;20560;-63
2021/10/17 09:22:13;;;;;;;12.18;2.88;;;;;;;14.21;100.00;99726.88;5094680;28;20416;-62
2021/10/17 09:25:29;;;;;;;2.45;1.33;;;;;;;14.23;100.00;99713.13;5094766;28;20499;-62
2021/10/17 09:28:32;;;;;;;4.05;1.65;;;;;;;14.23;100.00;99732.72;5094652;28;20132;-61
2021/10/17 09:31:35;;;;;;;4.38;1.42;;;;;;;14.17;100.00;99729.91;5094030;28;20507;-63
2021/10/17 09:34:38;;;;;;;6.25;1.27;;;;;;;14.21;100.00;99729.66;5094336;28;20047;-62
2021/10/17 09:37:43;;;;;;;2.72;1.00;;;;;;;14.22;100.00;99728.41;5094157;28;20063;-61
2021/10/17 09:40:47;;;;;;;3.22;1.42;;;;;;;14.24;100.00;99725.88;5094287;28;20035;-62
2021/10/17 09:43:58;;;;;;;2.28;1.05;;;;;;;14.31;100.00;99722.63;5094213;28;20568;-63
2021/10/17 09:47:01;;;;;;;4.10;1.85;;;;;;;14.35;100.00;99720.34;5094160;28;20129;-62
2021/10/17 09:50:18;;;;;;;4.78;1.50;;;;;;;14.47;100.00;99724.69;5094872;28;20093;-62
2021/10/17 09:53:21;;;;;;;3.90;1.58;;;;;;;14.51;100.00;99727.25;5094672;28;20051;-62
2021/10/17 09:56:36;;;;;;;2.38;0.75;;;;;;;14.55;100.00;99722.94;5094979;28;20123;-62
2021/10/17 09:59:40;;;;;;;1.98;1.55;;;;;;;14.59;100.00;99720.66;5094525;28;20039;-63
2021/10/17 10:02:51;;;;;;;1.58;1.20;;;;;;;14.65;100.00;99718.63;5094530;28;20051;-62
2021/10/17 10:05:56;;;;;;;3.88;1.45;;;;;;;14.71;100.00;99727.81;5091272;28;20106;-62
2021/10/17 10:09:08;;;;;;;2.78;0.55;;;;;;;14.77;100.00;99720.16;5093943;28;20047;-62
2021/10/17 10:12:11;;;;;;;4.43;1.30;;;;;;;14.89;100.00;99730.13;5093081;28;20419;-62
2021/10/17 10:15:15;;;;;;;4.07;1.63;;;;;;;15.06;100.00;99722.50;5093846;28;20051;-62
2021/10/17 10:18:18;;;;;;;5.32;1.95;;;;;;;15.16;100.00;99714.56;5093496;28;20395;-62
2021/10/17 10:21:23;;;;;;;6.32;1.95;;;;;;;15.17;100.00;99724.53;5093414;28;20606;-62
2021/10/17 10:24:27;;;;;;;6.47;0.93;;;;;;;15.09;100.00;99727.06;5093536;28;20074;-62
2021/10/17 10:27:31;;;;;;;3.10;1.05;;;;;;;15.08;100.00;99730.38;5093483;28;20169;-62
2021/10/17 10:30:34;;;;;;;2.33;0.63;;;;;;;15.10;100.00;99737.03;5092967;28;20152;-62
2021/10/17 10:33:42;;;;;;;7.88;1.95;;;;;;;15.18;100.00;99738.03;5092907;28;20128;-62
2021/10/17 10:36:45;;;;;;;1.55;1.05;;;;;;;15.23;100.00;99741.34;5092950;28;20542;-62
2021/10/17 10:40:01;;;;;;;3.75;1.80;;;;;;;15.20;100.00;99731.94;5092948;28;20097;-61
2021/10/17 10:43:15;;;;;;;4.60;1.60;;;;;;;15.25;100.00;99722.75;5093088;28;20132;-62
2021/10/17 10:46:28;;;;;;;4.72;1.98;;;;;;;15.32;100.00;99715.84;5092914;28;20061;-62
2021/10/17 10:49:42;;;;;;;4.32;1.92;;;;;;;15.46;100.00;99715.63;5092865;28;20047;-62
2021/10/17 10:52:45;;;;;;;3.40;1.45;;;;;;;15.51;100.00;99716.88;5091956;28;20062;-62
2021/10/17 10:55:51;;;;;;;4.15;1.38;;;;;;;15.58;100.00;99727.59;5091075;28;20065;-62
2021/10/17 10:58:55;;;;;;;10.43;2.60;;;;;;;15.50;100.00;99732.97;5092802;28;20051;-62
2021/10/17 11:02:20;;;;;;;4.38;2.05;;;;;;;15.46;100.00;99731.69;5091185;28;20297;-62
2021/10/17 11:05:23;;;;;;;5.35;2.10;;;;;;;15.49;100.00;99730.66;5092229;28;20993;-62
2021/10/17 11:08:26;;;;;;;6.45;2.20;;;;;;;15.56;100.00;99735.75;5092651;28;20038;-62
2021/10/17 11:11:38;;;;;;;2.30;1.15;;;;;;;15.64;100.00;99731.13;5091697;28;20054;-62
2021/10/17 11:14:41;;;;;;;11.63;3.58;;;;;;;15.63;100.00;99726.81;5090856;28;20071;-62
2021/10/17 11:17:48;;;;;;;9.25;2.92;;;;;;;15.69;100.00;99724.75;5091307;28;20128;-62
2021/10/17 11:20:51;;;;;;;3.45;1.88;;;;;;;15.68;100.00;99726.06;5090882;28;20047;-62
2021/10/17 11:23:54;;;;;;;9.70;2.22;;;;;;;15.67;100.00;99730.13;5091575;28;20042;-62
2021/10/17 11:27:14;;;;;;;4.97;2.30;;;;;;;15.68;100.00;99731.66;5092054;28;20451;-62
2021/10/17 11:30:30;;;;;;;2.67;1.50;;;;;;;15.78;100.00;99730.09;5092855;28;20047;-62
2021/10/17 11:33:33;;;;;;;6.63;1.63;;;;;;;15.85;100.00;99727.50;5093018;28;20403;-62
2021/10/17 11:36:36;;;;;;;4.30;2.17;;;;;;;15.98;100.00;99727.00;5092800;28;20039;-62
2021/10/17 11:40:10;;;;;;;5.38;2.42;;;;;;;16.14;100.00;99723.34;5093058;28;20089;-62
2021/10/17 11:43:14;;;;;;;3.03;1.63;;;;;;;16.08;100.00;99728.22;5093056;28;20135;-61
2021/10/17 11:46:22;;;;;;;4.40;1.15;;;;;;;16.12;100.00;99720.28;5093168;28;20097;-62
2021/10/17 11:49:27;;;;;;;4.75;2.40;;;;;;;16.21;100.00;99725.63;5092637;28;20039;-61
2021/10/17 11:52:30;;;;;;;15.75;3.13;;;;;;;16.28;100.00;99725.06;5092971;28;20408;-62
2021/10/17 11:55:36;;;;;;;2.75;1.58;;;;;;;16.41;100.00;99725.28;5092912;28;20050;-62
2021/10/17 11:58:40;;;;;;;3.28;1.67;;;;;;;16.38;100.00;99719.91;5092657;28;20404;-61
2021/10/17 12:01:43;;;;;;;6.32;1.77;;;;;;;16.44;100.00;99723.44;5092551;28;20077;-61
2021/10/17 12:04:46;;;;;;;3.83;1.35;;;;;;;16.49;100.00;99726.25;5092463;28;20051;-61
2021/10/17 12:07:56;;;;;;;8.43;2.50;;;;;;;16.49;100.00;99731.09;5092570;28;20137;-62
2021/10/17 12:11:02;;;;;;;4.23;0.73;;;;;;;16.42;100.00;99720.38;5092615;28;20039;-61
2021/10/17 12:14:06;;;;;;;4.55;1.55;;;;;;;16.29;100.00;99720.19;5092679;28;20472;-62
2021/10/17 12:17:14;;;;;;;2.78;1.40;;;;;;;16.23;100.00;99725.09;5092415;28;20050;-61
2021/10/17 12:20:17;;;;;;;2.97;1.00;;;;;;;16.19;100.00;99722.56;5092104;28;20119;-61
2021/10/17 12:23:21;;;;;;;4.32;1.88;;;;;;;16.17;100.00;99716.69;5092010;28;20207;-61
2021/10/17 12:26:26;;;;;;;3.50;1.35;;;;;;;16.12;100.00;99725.91;5091974;28;20066;-61
2021/10/17 12:29:31;;;;;;;4.82;1.48;;;;;;;16.11;100.00;99721.56;5092104;28;20054;-61
2021/10/17 12:32:56;;;;;;;3.88;2.00;;;;;;;16.18;100.00;99717.44;5091909;28;20443;-61
2021/10/17 12:36:01;;;;;;;4.22;2.00;;;;;;;16.30;100.00;99705.66;5080251;28;20412;-61
2021/10/17 12:39:12;;;;;;;3.95;1.45;;;;;;;16.38;100.00;99709.44;5096158;28;20047;-61
2021/10/17 12:42:16;;;;;;;3.80;1.67;;;;;;;16.40;100.00;99701.25;5095777;28;20071;-61
2021/10/17 12:45:19;;;;;;;6.70;2.03;;;;;;;16.41;100.00;99696.38;5094805;28;20043;-61
2021/10/17 12:48:37;;;;;;;5.68;2.00;;;;;;;16.44;100.00;99696.09;5094998;28;20051;-61
2021/10/17 12:51:53;;;;;;;8.88;2.65;;;;;;;16.38;100.00;99697.41;5095015;28;20165;-61
2021/10/17 12:54:58;;;;;;;5.57;1.85;;;;;;;16.40;100.00;99701.25;5095372;28;20046;-61
2021/10/17 12:58:10;;;;;;;5.22;3.03;;;;;;;16.34;100.00;99700.50;5095973;28;20442;-61
2021/10/17 13:01:15;;;;;;;5.20;1.60;;;;;;;16.39;100.00;99698.97;5095178;28;20055;-61
2021/10/17 13:04:19;;;;;;;7.43;2.67;;;;;;;16.41;100.00;99697.16;5095365;28;20065;-61
2021/10/17 13:07:25;;;;;;;14.70;2.63;;;;;;;16.47;100.00;99697.13;5095165;28;20503;-61
2021/10/17 13:10:29;;;;;;;8.40;2.55;;;;;;;16.49;100.00;99695.31;5094949;28;20037;-60
2021/10/17 13:13:32;;;;;;;6.90;2.33;;;;;;;16.61;100.00;99691.16;5095045;28;20043;-61
2021/10/17 13:16:42;;;;;;;4.85;2.55;;;;;;;16.68;100.00;99687.81;5095073;28;20055;-61
2021/10/17 13:19:45;;;;;;;3.00;1.90;;;;;;;16.76;100.00;99688.03;5095305;28;20073;-60
2021/10/17 13:22:51;;;;;;;13.02;3.03;;;;;;;16.91;100.00;99698.91;5094866;28;20097;-61
2021/10/17 13:25:56;;;;;;;5.63;1.38;;;;;;;16.96;100.00;99689.63;5094976;28;20043;-60
2021/10/17 13:29:00;;;;;;;6.25;2.55;;;;;;;16.90;100.00;99695.31;5094861;28;20062;-60
2021/10/17 13:32:03;;;;;;;9.50;2.97;;;;;;;16.91;100.00;99698.91;5094765;28;20209;-60
2021/10/17 13:35:07;;;;;;;9.75;2.45;;;;;;;16.97;100.00;99694.75;5094917;28;20050;-61
2021/10/17 13:38:10;;;;;;;3.70;1.60;;;;;;;16.97;100.00;99685.56;5095024;28;20082;-60
2021/10/17 13:41:13;;;;;;;5.63;2.22;;;;;;;17.06;100.00;99688.03;5094706;28;20085;-60
2021/10/17 13:44:17;;;;;;;5.88;2.03;;;;;;;17.22;100.00;99690.69;5094711;28;20096;-61
2021/10/17 13:47:20;;;;;;;3.80;1.25;;;;;;;17.29;100.00;99692.19;5094097;28;20132;-61
2021/10/17 13:50:24;;;;;;;3.10;1.08;;;;;;;17.37;100.00;99695.94;5093524;28;20526;-60
2021/10/17 13:53:28;;;;;;;2.25;1.17;;;;;;;17.46;100.00;99684.34;5092930;28;20169;-61
2021/10/17 13:56:30;;;;;;;5.57;1.80;;;;;;;17.65;100.00;99693.63;5094179;28;20035;-61
2021/10/17 13:59:34;;;;;;;3.30;1.63;;;;;;;17.75;100.00;99696.88;5090908;28;20078;-61
2021/10/17 14:02:38;;;;;;;7.82;1.70;;;;;;;17.78;100.00;99705.00;5074059;28;20078;-61
2021/10/17 14:05:43;;;;;;;3.20;0.80;;;;;;;17.67;100.00;99702.31;5073936;28;20044;-61
2021/10/17 14:08:45;;;;;;;3.42;1.67;;;;;;;17.47;100.00;99705.59;5073834;28;20059;-61
2021/10/17 14:11:49;;;;;;;3.85;1.30;;;;;;;17.32;100.00;99702.41;5073912;28;20507;-61
2021/10/17 14:14:52;;;;;;;5.57;1.52;;;;;;;17.22;100.00;99701.19;5073906;28;20474;-61
2021/10/17 14:17:55;;;;;;;3.97;1.10;;;;;;;17.19;100.00;99713.50;5073600;28;20047;-61
2021/10/17 14:20:57;;;;;;;3.42;1.38;;;;;;;17.09;100.00;99715.13;5073608;28;20044;-61
2021/10/17 14:24:00;;;;;;;4.22;1.63;;;;;;;17.06;100.00;99711.31;5072551;28;20087;-61
2021/10/17 14:27:04;;;;;;;5.32;2.08;;;;;;;16.99;100.00;99716.75;5073307;28;20136;-61
2021/10/17 14:30:07;;;;;;;8.18;1.50;;;;;;;16.98;100.00;99707.53;5073291;28;20396;-60